sensor_id;sensor_type;location;lat;lon;timestamp;P1;durP1;ratioP1;P2;durP2;ratioP2
49071;SDS011;52656;52.610;10.236;2023-07-24T00:02:07;4.38;;;2.72;;
49071;SDS011;52656;52.610;10.236;2023-07-24T00:04:33;3.67;;;2.53;;
49071;SDS011;52656;52.610;10.236;2023-07-24T00:06:59;3.90;;;2.70;;
49071;SDS011;52656;52.610;10.236;2023-07-24T00:09:25;3.55;;;2.35;;
49071;SDS011;52656;52.610;10.236;2023-07-24T00:11:50;3.97;;;2.67;;
49071;SDS011;52656;52.610;10.236;2023-07-24T00:14:16;4.80;;;2.67;;
49071;SDS011;52656;52.610;10.236;2023-07-24T00:16:41;3.60;;;2.28;;
49071;SDS011;52656;52.610;10.236;2023-07-24T00:19:06;5.00;;;2.40;;
49071;SDS011;52656;52.610;10.236;2023-07-24T00:21:32;3.50;;;2.20;;
49071;SDS011;52656;52.610;10.236;2023-07-24T00:23:57;4.03;;;2.60;;
49071;SDS011;52656;52.610;10.236;2023-07-24T00:26:22;3.70;;;2.17;;
49071;SDS011;52656;52.610;10.236;2023-07-24T00:28:48;3.03;;;2.05;;
49071;SDS011;52656;52.610;10.236;2023-07-24T00:31:13;3.05;;;2.03;;
49071;SDS011;52656;52.610;10.236;2023-07-24T00:33:38;4.40;;;2.25;;
49071;SDS011;52656;52.610;10.236;2023-07-24T00:36:04;4.30;;;2.25;;
49071;SDS011;52656;52.610;10.236;2023-07-24T00:38:29;4.40;;;2.20;;
49071;SDS011;52656;52.610;10.236;2023-07-24T00:40:54;4.88;;;2.20;;
49071;SDS011;52656;52.610;10.236;2023-07-24T00:43:20;3.78;;;1.98;;
49071;SDS011;52656;52.610;10.236;2023-07-24T00:45:45;4.28;;;2.13;;
49071;SDS011;52656;52.610;10.236;2023-07-24T00:48:12;4.32;;;2.10;;
49071;SDS011;52656;52.610;10.236;2023-07-24T00:50:37;3.70;;;2.38;;
49071;SDS011;52656;52.610;10.236;2023-07-24T00:53:03;3.25;;;2.40;;
49071;SDS011;52656;52.610;10.236;2023-07-24T00:55:29;3.40;;;2.13;;
49071;SDS011;52656;52.610;10.236;2023-07-24T00:57:56;3.83;;;2.30;;
49071;SDS011;52656;52.610;10.236;2023-07-24T01:00:23;3.33;;;2.00;;
49071;SDS011;52656;52.610;10.236;2023-07-24T01:02:48;4.20;;;2.15;;
49071;SDS011;52656;52.610;10.236;2023-07-24T01:05:14;2.97;;;2.00;;
49071;SDS011;52656;52.610;10.236;2023-07-24T01:07:41;3.53;;;2.20;;
49071;SDS011;52656;52.610;10.236;2023-07-24T01:10:07;3.58;;;2.28;;
49071;SDS011;52656;52.610;10.236;2023-07-24T01:12:36;2.90;;;1.92;;
49071;SDS011;52656;52.610;10.236;2023-07-24T01:15:11;5.65;;;2.35;;
49071;SDS011;52656;52.610;10.236;2023-07-24T01:17:48;3.33;;;2.20;;
49071;SDS011;52656;52.610;10.236;2023-07-24T01:20:15;3.92;;;2.05;;
49071;SDS011;52656;52.610;10.236;2023-07-24T01:25:56;3.55;;;2.30;;
49071;SDS011;52656;52.610;10.236;2023-07-24T01:28:23;3.67;;;2.30;;
49071;SDS011;52656;52.610;10.236;2023-07-24T01:30:49;3.80;;;2.58;;
49071;SDS011;52656;52.610;10.236;2023-07-24T01:33:14;3.97;;;2.10;;
49071;SDS011;52656;52.610;10.236;2023-07-24T01:35:40;3.85;;;2.20;;
49071;SDS011;52656;52.610;10.236;2023-07-24T01:38:09;4.30;;;2.63;;
49071;SDS011;52656;52.610;10.236;2023-07-24T01:40:36;5.05;;;2.78;;
49071;SDS011;52656;52.610;10.236;2023-07-24T01:43:03;4.90;;;2.42;;
49071;SDS011;52656;52.610;10.236;2023-07-24T01:45:29;3.67;;;2.63;;
49071;SDS011;52656;52.610;10.236;2023-07-24T01:47:54;3.80;;;2.75;;
49071;SDS011;52656;52.610;10.236;2023-07-24T01:50:19;4.70;;;2.55;;
49071;SDS011;52656;52.610;10.236;2023-07-24T01:52:45;5.25;;;3.00;;
49071;SDS011;52656;52.610;10.236;2023-07-24T01:55:10;4.00;;;2.70;;
49071;SDS011;52656;52.610;10.236;2023-07-24T01:57:35;4.43;;;2.67;;
49071;SDS011;52656;52.610;10.236;2023-07-24T02:00:01;3.80;;;2.90;;
49071;SDS011;52656;52.610;10.236;2023-07-24T02:02:26;4.97;;;3.10;;
49071;SDS011;52656;52.610;10.236;2023-07-24T02:04:51;5.80;;;3.28;;
49071;SDS011;52656;52.610;10.236;2023-07-24T02:07:17;4.82;;;3.53;;
49071;SDS011;52656;52.610;10.236;2023-07-24T02:09:42;4.65;;;3.13;;
49071;SDS011;52656;52.610;10.236;2023-07-24T02:12:07;4.80;;;3.33;;
49071;SDS011;52656;52.610;10.236;2023-07-24T02:14:33;4.10;;;3.50;;
49071;SDS011;52656;52.610;10.236;2023-07-24T02:16:58;5.90;;;3.88;;
49071;SDS011;52656;52.610;10.236;2023-07-24T02:19:23;7.40;;;3.90;;
49071;SDS011;52656;52.610;10.236;2023-07-24T02:21:49;5.18;;;3.67;;
49071;SDS011;52656;52.610;10.236;2023-07-24T02:24:14;5.30;;;4.18;;
49071;SDS011;52656;52.610;10.236;2023-07-24T02:26:39;5.60;;;3.95;;
49071;SDS011;52656;52.610;10.236;2023-07-24T02:29:04;5.18;;;3.95;;
49071;SDS011;52656;52.610;10.236;2023-07-24T02:31:30;4.80;;;3.85;;
49071;SDS011;52656;52.610;10.236;2023-07-24T02:33:55;4.78;;;4.05;;
49071;SDS011;52656;52.610;10.236;2023-07-24T02:36:20;4.75;;;3.85;;
49071;SDS011;52656;52.610;10.236;2023-07-24T02:38:46;7.05;;;4.38;;
49071;SDS011;52656;52.610;10.236;2023-07-24T02:41:11;5.40;;;4.57;;
49071;SDS011;52656;52.610;10.236;2023-07-24T02:43:36;7.03;;;5.18;;
49071;SDS011;52656;52.610;10.236;2023-07-24T02:46:02;7.95;;;4.72;;
49071;SDS011;52656;52.610;10.236;2023-07-24T02:48:28;5.50;;;4.00;;
49071;SDS011;52656;52.610;10.236;2023-07-24T02:50:53;5.60;;;4.50;;
49071;SDS011;52656;52.610;10.236;2023-07-24T02:53:19;7.03;;;4.97;;
49071;SDS011;52656;52.610;10.236;2023-07-24T02:55:44;7.95;;;4.45;;
49071;SDS011;52656;52.610;10.236;2023-07-24T02:58:11;5.78;;;4.38;;
49071;SDS011;52656;52.610;10.236;2023-07-24T03:00:37;6.38;;;4.63;;
49071;SDS011;52656;52.610;10.236;2023-07-24T03:03:02;5.78;;;4.00;;
49071;SDS011;52656;52.610;10.236;2023-07-24T03:05:28;5.90;;;4.63;;
49071;SDS011;52656;52.610;10.236;2023-07-24T03:07:53;6.00;;;4.70;;
49071;SDS011;52656;52.610;10.236;2023-07-24T03:10:19;6.28;;;4.80;;
49071;SDS011;52656;52.610;10.236;2023-07-24T03:12:44;6.97;;;4.95;;
49071;SDS011;52656;52.610;10.236;2023-07-24T03:15:10;7.15;;;4.90;;
49071;SDS011;52656;52.610;10.236;2023-07-24T03:17:35;6.00;;;4.90;;
49071;SDS011;52656;52.610;10.236;2023-07-24T03:20:07;5.75;;;4.55;;
49071;SDS011;52656;52.610;10.236;2023-07-24T03:22:34;5.55;;;4.72;;
49071;SDS011;52656;52.610;10.236;2023-07-24T03:24:59;7.63;;;5.25;;
49071;SDS011;52656;52.610;10.236;2023-07-24T03:27:24;5.97;;;4.63;;
49071;SDS011;52656;52.610;10.236;2023-07-24T03:29:50;6.20;;;5.15;;
49071;SDS011;52656;52.610;10.236;2023-07-24T03:32:15;7.10;;;4.72;;
49071;SDS011;52656;52.610;10.236;2023-07-24T03:34:40;7.45;;;5.20;;
49071;SDS011;52656;52.610;10.236;2023-07-24T03:37:05;8.80;;;4.90;;
49071;SDS011;52656;52.610;10.236;2023-07-24T03:39:31;5.72;;;4.53;;
49071;SDS011;52656;52.610;10.236;2023-07-24T03:41:56;6.88;;;4.57;;
49071;SDS011;52656;52.610;10.236;2023-07-24T03:44:21;5.63;;;4.97;;
49071;SDS011;52656;52.610;10.236;2023-07-24T03:46:47;5.82;;;4.90;;
49071;SDS011;52656;52.610;10.236;2023-07-24T03:49:12;6.82;;;5.20;;
49071;SDS011;52656;52.610;10.236;2023-07-24T03:51:37;7.53;;;5.32;;
49071;SDS011;52656;52.610;10.236;2023-07-24T03:54:02;6.80;;;5.15;;
49071;SDS011;52656;52.610;10.236;2023-07-24T03:56:28;7.80;;;5.10;;
49071;SDS011;52656;52.610;10.236;2023-07-24T03:58:53;6.47;;;4.90;;
49071;SDS011;52656;52.610;10.236;2023-07-24T04:01:18;8.48;;;4.53;;
49071;SDS011;52656;52.610;10.236;2023-07-24T04:03:44;6.88;;;4.82;;
49071;SDS011;52656;52.610;10.236;2023-07-24T04:06:10;5.90;;;5.00;;
49071;SDS011;52656;52.610;10.236;2023-07-24T04:08:35;6.45;;;4.88;;
49071;SDS011;52656;52.610;10.236;2023-07-24T04:11:00;5.97;;;4.90;;
49071;SDS011;52656;52.610;10.236;2023-07-24T04:13:26;4.88;;;4.00;;
49071;SDS011;52656;52.610;10.236;2023-07-24T04:15:51;4.60;;;3.95;;
49071;SDS011;52656;52.610;10.236;2023-07-24T04:18:16;5.60;;;4.57;;
49071;SDS011;52656;52.610;10.236;2023-07-24T04:20:41;5.80;;;4.53;;
49071;SDS011;52656;52.610;10.236;2023-07-24T04:23:07;5.25;;;4.25;;
49071;SDS011;52656;52.610;10.236;2023-07-24T04:25:32;4.82;;;4.00;;
49071;SDS011;52656;52.610;10.236;2023-07-24T04:27:57;5.05;;;3.78;;
49071;SDS011;52656;52.610;10.236;2023-07-24T04:30:23;5.45;;;4.07;;
49071;SDS011;52656;52.610;10.236;2023-07-24T04:32:48;5.07;;;3.40;;
49071;SDS011;52656;52.610;10.236;2023-07-24T04:35:14;7.63;;;3.78;;
49071;SDS011;52656;52.610;10.236;2023-07-24T04:37:39;4.60;;;3.55;;
49071;SDS011;52656;52.610;10.236;2023-07-24T04:40:05;4.70;;;3.60;;
49071;SDS011;52656;52.610;10.236;2023-07-24T04:42:31;7.75;;;3.55;;
49071;SDS011;52656;52.610;10.236;2023-07-24T04:44:56;4.93;;;4.05;;
49071;SDS011;52656;52.610;10.236;2023-07-24T04:47:22;5.25;;;3.45;;
49071;SDS011;52656;52.610;10.236;2023-07-24T04:49:47;5.60;;;3.90;;
49071;SDS011;52656;52.610;10.236;2023-07-24T04:52:12;6.30;;;4.00;;
49071;SDS011;52656;52.610;10.236;2023-07-24T04:54:38;5.32;;;3.55;;
49071;SDS011;52656;52.610;10.236;2023-07-24T04:57:03;3.92;;;3.30;;
49071;SDS011;52656;52.610;10.236;2023-07-24T04:59:29;4.97;;;3.58;;
49071;SDS011;52656;52.610;10.236;2023-07-24T05:01:54;4.03;;;3.45;;
49071;SDS011;52656;52.610;10.236;2023-07-24T05:04:19;6.15;;;3.58;;
49071;SDS011;52656;52.610;10.236;2023-07-24T05:06:45;5.45;;;3.00;;
49071;SDS011;52656;52.610;10.236;2023-07-24T05:09:10;5.47;;;3.33;;
49071;SDS011;52656;52.610;10.236;2023-07-24T05:11:35;5.20;;;3.10;;
49071;SDS011;52656;52.610;10.236;2023-07-24T05:14:00;4.35;;;3.35;;
49071;SDS011;52656;52.610;10.236;2023-07-24T05:16:26;5.00;;;3.00;;
49071;SDS011;52656;52.610;10.236;2023-07-24T05:18:51;3.88;;;2.92;;
49071;SDS011;52656;52.610;10.236;2023-07-24T05:21:16;6.95;;;3.13;;
49071;SDS011;52656;52.610;10.236;2023-07-24T05:23:42;5.50;;;2.70;;
49071;SDS011;52656;52.610;10.236;2023-07-24T05:26:07;4.70;;;2.40;;
49071;SDS011;52656;52.610;10.236;2023-07-24T05:28:32;4.10;;;2.40;;
49071;SDS011;52656;52.610;10.236;2023-07-24T05:31:01;5.30;;;2.60;;
49071;SDS011;52656;52.610;10.236;2023-07-24T05:33:27;3.38;;;2.20;;
49071;SDS011;52656;52.610;10.236;2023-07-24T05:35:57;3.58;;;2.40;;
49071;SDS011;52656;52.610;10.236;2023-07-24T05:38:25;3.35;;;2.28;;
49071;SDS011;52656;52.610;10.236;2023-07-24T05:41:09;3.92;;;2.40;;
49071;SDS011;52656;52.610;10.236;2023-07-24T05:43:34;3.33;;;2.30;;
49071;SDS011;52656;52.610;10.236;2023-07-24T05:45:59;3.63;;;2.22;;
49071;SDS011;52656;52.610;10.236;2023-07-24T05:48:25;4.47;;;1.98;;
49071;SDS011;52656;52.610;10.236;2023-07-24T05:50:50;2.95;;;1.95;;
49071;SDS011;52656;52.610;10.236;2023-07-24T05:53:16;3.97;;;2.20;;
49071;SDS011;52656;52.610;10.236;2023-07-24T05:55:41;2.80;;;1.65;;
49071;SDS011;52656;52.610;10.236;2023-07-24T05:58:07;3.90;;;2.00;;
49071;SDS011;52656;52.610;10.236;2023-07-24T06:00:33;2.45;;;1.75;;
49071;SDS011;52656;52.610;10.236;2023-07-24T06:02:58;5.72;;;1.90;;
49071;SDS011;52656;52.610;10.236;2023-07-24T06:05:23;3.63;;;1.90;;
49071;SDS011;52656;52.610;10.236;2023-07-24T06:07:49;3.35;;;2.13;;
49071;SDS011;52656;52.610;10.236;2023-07-24T06:10:14;4.63;;;1.63;;
49071;SDS011;52656;52.610;10.236;2023-07-24T06:12:40;2.90;;;1.52;;
49071;SDS011;52656;52.610;10.236;2023-07-24T06:15:05;3.00;;;1.73;;
49071;SDS011;52656;52.610;10.236;2023-07-24T06:17:31;5.13;;;1.92;;
49071;SDS011;52656;52.610;10.236;2023-07-24T06:19:56;3.55;;;1.83;;
49071;SDS011;52656;52.610;10.236;2023-07-24T06:22:22;2.95;;;2.00;;
49071;SDS011;52656;52.610;10.236;2023-07-24T06:24:47;3.30;;;1.80;;
49071;SDS011;52656;52.610;10.236;2023-07-24T06:27:13;4.20;;;2.05;;
49071;SDS011;52656;52.610;10.236;2023-07-24T06:29:38;3.03;;;1.70;;
49071;SDS011;52656;52.610;10.236;2023-07-24T06:32:04;3.67;;;2.10;;
49071;SDS011;52656;52.610;10.236;2023-07-24T06:34:29;3.53;;;2.10;;
49071;SDS011;52656;52.610;10.236;2023-07-24T06:36:55;3.80;;;2.00;;
49071;SDS011;52656;52.610;10.236;2023-07-24T06:39:20;4.72;;;2.20;;
49071;SDS011;52656;52.610;10.236;2023-07-24T06:41:45;3.55;;;2.20;;
49071;SDS011;52656;52.610;10.236;2023-07-24T06:44:11;3.50;;;1.85;;
49071;SDS011;52656;52.610;10.236;2023-07-24T06:46:36;4.82;;;2.10;;
49071;SDS011;52656;52.610;10.236;2023-07-24T06:49:01;2.55;;;1.83;;
49071;SDS011;52656;52.610;10.236;2023-07-24T06:51:27;4.18;;;2.00;;
49071;SDS011;52656;52.610;10.236;2023-07-24T06:53:52;3.78;;;1.90;;
49071;SDS011;52656;52.610;10.236;2023-07-24T06:56:17;3.45;;;1.83;;
49071;SDS011;52656;52.610;10.236;2023-07-24T06:58:43;3.50;;;1.85;;
49071;SDS011;52656;52.610;10.236;2023-07-24T07:01:08;4.72;;;2.30;;
49071;SDS011;52656;52.610;10.236;2023-07-24T07:03:33;6.72;;;2.40;;
49071;SDS011;52656;52.610;10.236;2023-07-24T07:06:02;3.70;;;1.80;;
49071;SDS011;52656;52.610;10.236;2023-07-24T07:08:28;4.13;;;2.13;;
49071;SDS011;52656;52.610;10.236;2023-07-24T07:10:57;4.13;;;1.92;;
49071;SDS011;52656;52.610;10.236;2023-07-24T07:13:24;3.17;;;1.90;;
49071;SDS011;52656;52.610;10.236;2023-07-24T07:15:49;3.03;;;1.80;;
49071;SDS011;52656;52.610;10.236;2023-07-24T07:18:14;6.13;;;2.08;;
49071;SDS011;52656;52.610;10.236;2023-07-24T07:20:49;3.10;;;1.80;;
49071;SDS011;52656;52.610;10.236;2023-07-24T07:23:17;3.47;;;2.03;;
49071;SDS011;52656;52.610;10.236;2023-07-24T07:25:43;4.45;;;2.50;;
49071;SDS011;52656;52.610;10.236;2023-07-24T07:28:12;4.93;;;2.20;;
49071;SDS011;52656;52.610;10.236;2023-07-24T07:30:38;3.95;;;2.40;;
49071;SDS011;52656;52.610;10.236;2023-07-24T07:33:04;6.07;;;2.20;;
49071;SDS011;52656;52.610;10.236;2023-07-24T07:35:31;4.72;;;2.60;;
49071;SDS011;52656;52.610;10.236;2023-07-24T07:37:57;5.22;;;2.53;;
49071;SDS011;52656;52.610;10.236;2023-07-24T07:40:22;6.63;;;2.70;;
49071;SDS011;52656;52.610;10.236;2023-07-24T07:42:48;5.70;;;2.50;;
49071;SDS011;52656;52.610;10.236;2023-07-24T07:45:14;5.25;;;2.83;;
49071;SDS011;52656;52.610;10.236;2023-07-24T07:47:39;4.82;;;2.40;;
49071;SDS011;52656;52.610;10.236;2023-07-24T07:50:04;5.80;;;2.80;;
49071;SDS011;52656;52.610;10.236;2023-07-24T07:52:30;5.32;;;2.80;;
49071;SDS011;52656;52.610;10.236;2023-07-24T07:54:55;6.40;;;2.70;;
49071;SDS011;52656;52.610;10.236;2023-07-24T07:57:21;5.40;;;2.85;;
49071;SDS011;52656;52.610;10.236;2023-07-24T07:59:46;6.53;;;2.60;;
49071;SDS011;52656;52.610;10.236;2023-07-24T08:02:11;5.80;;;2.70;;
49071;SDS011;52656;52.610;10.236;2023-07-24T08:04:36;6.57;;;2.63;;
49071;SDS011;52656;52.610;10.236;2023-07-24T08:07:02;6.25;;;3.25;;
49071;SDS011;52656;52.610;10.236;2023-07-24T08:09:27;5.45;;;2.80;;
49071;SDS011;52656;52.610;10.236;2023-07-24T08:11:53;6.53;;;3.00;;
49071;SDS011;52656;52.610;10.236;2023-07-24T08:14:18;6.18;;;2.95;;
49071;SDS011;52656;52.610;10.236;2023-07-24T08:16:43;5.38;;;2.50;;
49071;SDS011;52656;52.610;10.236;2023-07-24T08:19:09;8.45;;;3.30;;
49071;SDS011;52656;52.610;10.236;2023-07-24T08:21:34;6.28;;;3.10;;
49071;SDS011;52656;52.610;10.236;2023-07-24T08:24:00;5.07;;;2.78;;
49071;SDS011;52656;52.610;10.236;2023-07-24T08:26:27;6.63;;;2.72;;
49071;SDS011;52656;52.610;10.236;2023-07-24T08:28:52;5.40;;;2.83;;
49071;SDS011;52656;52.610;10.236;2023-07-24T08:31:17;7.05;;;2.67;;
49071;SDS011;52656;52.610;10.236;2023-07-24T08:33:43;8.02;;;2.80;;
49071;SDS011;52656;52.610;10.236;2023-07-24T08:36:08;4.18;;;2.40;;
49071;SDS011;52656;52.610;10.236;2023-07-24T08:38:37;5.72;;;2.50;;
49071;SDS011;52656;52.610;10.236;2023-07-24T08:41:03;5.93;;;2.30;;
49071;SDS011;52656;52.610;10.236;2023-07-24T08:43:30;4.10;;;2.17;;
49071;SDS011;52656;52.610;10.236;2023-07-24T08:45:57;4.32;;;2.40;;
49071;SDS011;52656;52.610;10.236;2023-07-24T08:48:24;6.13;;;2.53;;
49071;SDS011;52656;52.610;10.236;2023-07-24T08:50:51;4.35;;;2.38;;
49071;SDS011;52656;52.610;10.236;2023-07-24T08:53:21;5.05;;;2.20;;
49071;SDS011;52656;52.610;10.236;2023-07-24T08:55:47;3.40;;;2.10;;
49071;SDS011;52656;52.610;10.236;2023-07-24T08:58:16;2.90;;;2.05;;
49071;SDS011;52656;52.610;10.236;2023-07-24T09:00:42;4.18;;;2.20;;
49071;SDS011;52656;52.610;10.236;2023-07-24T09:03:07;4.95;;;1.95;;
49071;SDS011;52656;52.610;10.236;2023-07-24T09:05:33;4.05;;;2.30;;
49071;SDS011;52656;52.610;10.236;2023-07-24T09:07:59;3.97;;;2.10;;
49071;SDS011;52656;52.610;10.236;2023-07-24T09:10:24;3.92;;;1.90;;
49071;SDS011;52656;52.610;10.236;2023-07-24T09:12:50;2.60;;;1.70;;
49071;SDS011;52656;52.610;10.236;2023-07-24T09:15:16;3.13;;;2.13;;
49071;SDS011;52656;52.610;10.236;2023-07-24T09:17:50;3.63;;;2.20;;
49071;SDS011;52656;52.610;10.236;2023-07-24T09:20:16;7.35;;;2.72;;
49071;SDS011;52656;52.610;10.236;2023-07-24T09:22:51;2.80;;;1.85;;
49071;SDS011;52656;52.610;10.236;2023-07-24T09:27:54;3.58;;;2.30;;
49071;SDS011;52656;52.610;10.236;2023-07-24T09:30:19;4.53;;;2.10;;
49071;SDS011;52656;52.610;10.236;2023-07-24T09:32:51;3.63;;;2.65;;
49071;SDS011;52656;52.610;10.236;2023-07-24T09:35:17;6.55;;;2.50;;
49071;SDS011;52656;52.610;10.236;2023-07-24T09:37:43;4.00;;;2.47;;
49071;SDS011;52656;52.610;10.236;2023-07-24T09:40:09;3.58;;;2.30;;
49071;SDS011;52656;52.610;10.236;2023-07-24T09:42:36;2.85;;;2.17;;
49071;SDS011;52656;52.610;10.236;2023-07-24T09:45:02;3.30;;;2.10;;
49071;SDS011;52656;52.610;10.236;2023-07-24T09:47:29;5.88;;;2.30;;
49071;SDS011;52656;52.610;10.236;2023-07-24T09:49:55;3.00;;;2.20;;
49071;SDS011;52656;52.610;10.236;2023-07-24T09:52:21;3.90;;;2.28;;
49071;SDS011;52656;52.610;10.236;2023-07-24T09:54:55;2.42;;;2.00;;
49071;SDS011;52656;52.610;10.236;2023-07-24T09:57:26;3.47;;;2.13;;
49071;SDS011;52656;52.610;10.236;2023-07-24T09:59:53;3.03;;;2.03;;
49071;SDS011;52656;52.610;10.236;2023-07-24T10:02:21;3.70;;;2.20;;
49071;SDS011;52656;52.610;10.236;2023-07-24T10:04:47;3.92;;;2.10;;
49071;SDS011;52656;52.610;10.236;2023-07-24T10:07:13;5.47;;;2.20;;
49071;SDS011;52656;52.610;10.236;2023-07-24T10:09:40;3.10;;;2.15;;
49071;SDS011;52656;52.610;10.236;2023-07-24T10:12:07;3.28;;;2.17;;
49071;SDS011;52656;52.610;10.236;2023-07-24T10:14:34;3.65;;;2.28;;
49071;SDS011;52656;52.610;10.236;2023-07-24T10:17:01;3.35;;;2.25;;
49071;SDS011;52656;52.610;10.236;2023-07-24T10:19:35;2.60;;;1.95;;
49071;SDS011;52656;52.610;10.236;2023-07-24T10:22:04;3.92;;;2.05;;
49071;SDS011;52656;52.610;10.236;2023-07-24T10:24:29;3.35;;;2.20;;
49071;SDS011;52656;52.610;10.236;2023-07-24T10:26:56;3.72;;;2.20;;
49071;SDS011;52656;52.610;10.236;2023-07-24T10:29:23;2.53;;;1.95;;
49071;SDS011;52656;52.610;10.236;2023-07-24T10:31:53;2.88;;;2.20;;
49071;SDS011;52656;52.610;10.236;2023-07-24T10:34:19;2.70;;;1.90;;
49071;SDS011;52656;52.610;10.236;2023-07-24T10:36:45;2.92;;;2.10;;
49071;SDS011;52656;52.610;10.236;2023-07-24T10:39:17;4.88;;;2.50;;
49071;SDS011;52656;52.610;10.236;2023-07-24T10:41:45;5.03;;;2.55;;
49071;SDS011;52656;52.610;10.236;2023-07-24T10:44:11;3.88;;;2.22;;
49071;SDS011;52656;52.610;10.236;2023-07-24T10:46:37;3.47;;;2.22;;
49071;SDS011;52656;52.610;10.236;2023-07-24T10:49:07;4.82;;;2.53;;
49071;SDS011;52656;52.610;10.236;2023-07-24T10:51:33;4.45;;;2.63;;
49071;SDS011;52656;52.610;10.236;2023-07-24T10:54:02;4.28;;;2.80;;
49071;SDS011;52656;52.610;10.236;2023-07-24T10:56:28;4.32;;;3.00;;
49071;SDS011;52656;52.610;10.236;2023-07-24T10:58:54;4.50;;;2.70;;
49071;SDS011;52656;52.610;10.236;2023-07-24T11:01:19;4.00;;;2.38;;
49071;SDS011;52656;52.610;10.236;2023-07-24T11:03:44;4.88;;;2.90;;
49071;SDS011;52656;52.610;10.236;2023-07-24T11:06:18;3.78;;;3.00;;
49071;SDS011;52656;52.610;10.236;2023-07-24T11:08:51;4.28;;;2.70;;
49071;SDS011;52656;52.610;10.236;2023-07-24T11:11:18;3.55;;;2.70;;
49071;SDS011;52656;52.610;10.236;2023-07-24T11:13:43;4.32;;;2.70;;
49071;SDS011;52656;52.610;10.236;2023-07-24T11:16:08;4.03;;;2.72;;
49071;SDS011;52656;52.610;10.236;2023-07-24T11:18:43;4.70;;;2.92;;
49071;SDS011;52656;52.610;10.236;2023-07-24T11:21:12;4.20;;;3.10;;
49071;SDS011;52656;52.610;10.236;2023-07-24T11:23:44;4.40;;;3.40;;
49071;SDS011;52656;52.610;10.236;2023-07-24T11:26:13;5.88;;;3.53;;
49071;SDS011;52656;52.610;10.236;2023-07-24T11:28:39;6.82;;;3.88;;
49071;SDS011;52656;52.610;10.236;2023-07-24T11:31:05;4.20;;;3.65;;
49071;SDS011;52656;52.610;10.236;2023-07-24T11:33:30;5.28;;;3.90;;
49071;SDS011;52656;52.610;10.236;2023-07-24T11:35:56;5.25;;;3.80;;
49071;SDS011;52656;52.610;10.236;2023-07-24T11:38:22;6.13;;;4.07;;
49071;SDS011;52656;52.610;10.236;2023-07-24T11:40:48;4.35;;;3.63;;
49071;SDS011;52656;52.610;10.236;2023-07-24T11:43:15;5.82;;;4.00;;
49071;SDS011;52656;52.610;10.236;2023-07-24T11:45:42;5.95;;;4.07;;
49071;SDS011;52656;52.610;10.236;2023-07-24T11:48:09;5.55;;;3.88;;
49071;SDS011;52656;52.610;10.236;2023-07-24T11:50:44;6.28;;;4.25;;
49071;SDS011;52656;52.610;10.236;2023-07-24T11:55:45;5.00;;;3.63;;
49071;SDS011;52656;52.610;10.236;2023-07-24T11:58:13;5.78;;;4.10;;
49071;SDS011;52656;52.610;10.236;2023-07-24T12:00:40;6.50;;;4.28;;
49071;SDS011;52656;52.610;10.236;2023-07-24T12:03:05;10.57;;;4.93;;
49071;SDS011;52656;52.610;10.236;2023-07-24T12:05:39;5.72;;;3.85;;
49071;SDS011;52656;52.610;10.236;2023-07-24T12:08:05;9.57;;;3.50;;
49071;SDS011;52656;52.610;10.236;2023-07-24T12:10:31;5.30;;;3.83;;
49071;SDS011;52656;52.610;10.236;2023-07-24T12:12:59;5.70;;;3.38;;
49071;SDS011;52656;52.610;10.236;2023-07-24T12:15:25;5.65;;;2.90;;
49071;SDS011;52656;52.610;10.236;2023-07-24T12:17:51;3.63;;;2.67;;
49071;SDS011;52656;52.610;10.236;2023-07-24T12:20:17;3.35;;;2.10;;
49071;SDS011;52656;52.610;10.236;2023-07-24T12:22:42;3.88;;;2.60;;
49071;SDS011;52656;52.610;10.236;2023-07-24T12:25:08;3.67;;;2.03;;
49071;SDS011;52656;52.610;10.236;2023-07-24T12:27:33;3.35;;;2.00;;
49071;SDS011;52656;52.610;10.236;2023-07-24T12:29:59;3.17;;;1.90;;
49071;SDS011;52656;52.610;10.236;2023-07-24T12:32:25;2.60;;;1.83;;
49071;SDS011;52656;52.610;10.236;2023-07-24T12:34:50;7.45;;;2.03;;
49071;SDS011;52656;52.610;10.236;2023-07-24T12:37:19;3.42;;;2.05;;
49071;SDS011;52656;52.610;10.236;2023-07-24T12:39:45;2.70;;;1.90;;
49071;SDS011;52656;52.610;10.236;2023-07-24T12:42:12;3.30;;;2.13;;
49071;SDS011;52656;52.610;10.236;2023-07-24T12:44:37;3.72;;;2.20;;
49071;SDS011;52656;52.610;10.236;2023-07-24T12:47:03;3.78;;;2.10;;
49071;SDS011;52656;52.610;10.236;2023-07-24T12:49:29;3.22;;;2.30;;
49071;SDS011;52656;52.610;10.236;2023-07-24T12:51:54;2.95;;;2.22;;
49071;SDS011;52656;52.610;10.236;2023-07-24T12:54:20;3.58;;;2.20;;
49071;SDS011;52656;52.610;10.236;2023-07-24T12:56:46;3.65;;;2.63;;
49071;SDS011;52656;52.610;10.236;2023-07-24T12:59:12;3.78;;;2.40;;
49071;SDS011;52656;52.610;10.236;2023-07-24T13:01:37;4.35;;;2.35;;
49071;SDS011;52656;52.610;10.236;2023-07-24T13:04:03;3.40;;;2.63;;
49071;SDS011;52656;52.610;10.236;2023-07-24T13:06:28;4.20;;;2.50;;
49071;SDS011;52656;52.610;10.236;2023-07-24T13:08:54;3.22;;;2.33;;
49071;SDS011;52656;52.610;10.236;2023-07-24T13:11:19;4.03;;;2.38;;
49071;SDS011;52656;52.610;10.236;2023-07-24T13:13:44;3.60;;;2.60;;
49071;SDS011;52656;52.610;10.236;2023-07-24T13:16:09;3.42;;;2.55;;
49071;SDS011;52656;52.610;10.236;2023-07-24T13:18:35;6.25;;;2.85;;
49071;SDS011;52656;52.610;10.236;2023-07-24T13:21:00;3.50;;;2.72;;
49071;SDS011;52656;52.610;10.236;2023-07-24T13:23:25;4.13;;;2.83;;
49071;SDS011;52656;52.610;10.236;2023-07-24T13:25:54;5.22;;;3.00;;
49071;SDS011;52656;52.610;10.236;2023-07-24T13:28:20;4.35;;;2.70;;
49071;SDS011;52656;52.610;10.236;2023-07-24T13:30:45;4.28;;;2.90;;
49071;SDS011;52656;52.610;10.236;2023-07-24T13:33:11;4.53;;;2.80;;
49071;SDS011;52656;52.610;10.236;2023-07-24T13:37:45;5.00;;;3.17;;
49071;SDS011;52656;52.610;10.236;2023-07-24T13:40:10;5.00;;;2.95;;
49071;SDS011;52656;52.610;10.236;2023-07-24T13:42:36;4.50;;;3.17;;
49071;SDS011;52656;52.610;10.236;2023-07-24T13:45:01;3.92;;;3.08;;
49071;SDS011;52656;52.610;10.236;2023-07-24T13:47:26;4.38;;;3.47;;
49071;SDS011;52656;52.610;10.236;2023-07-24T13:49:52;6.53;;;3.60;;
49071;SDS011;52656;52.610;10.236;2023-07-24T13:52:17;4.38;;;3.28;;
49071;SDS011;52656;52.610;10.236;2023-07-24T13:54:42;4.10;;;3.53;;
49071;SDS011;52656;52.610;10.236;2023-07-24T13:57:08;5.38;;;3.40;;
49071;SDS011;52656;52.610;10.236;2023-07-24T13:59:34;4.65;;;3.65;;
49071;SDS011;52656;52.610;10.236;2023-07-24T14:02:00;4.13;;;3.25;;
49071;SDS011;52656;52.610;10.236;2023-07-24T14:04:25;5.15;;;3.10;;
49071;SDS011;52656;52.610;10.236;2023-07-24T14:06:50;4.97;;;3.10;;
49071;SDS011;52656;52.610;10.236;2023-07-24T14:09:15;4.53;;;3.20;;
49071;SDS011;52656;52.610;10.236;2023-07-24T14:11:41;5.03;;;3.30;;
49071;SDS011;52656;52.610;10.236;2023-07-24T14:14:06;3.72;;;2.72;;
49071;SDS011;52656;52.610;10.236;2023-07-24T14:16:31;4.38;;;3.03;;
49071;SDS011;52656;52.610;10.236;2023-07-24T14:18:57;4.20;;;2.90;;
49071;SDS011;52656;52.610;10.236;2023-07-24T14:21:22;4.30;;;2.85;;
49071;SDS011;52656;52.610;10.236;2023-07-24T14:23:47;4.25;;;2.97;;
49071;SDS011;52656;52.610;10.236;2023-07-24T14:26:12;4.70;;;2.55;;
49071;SDS011;52656;52.610;10.236;2023-07-24T14:28:38;4.50;;;2.72;;
49071;SDS011;52656;52.610;10.236;2023-07-24T14:31:03;4.38;;;2.88;;
49071;SDS011;52656;52.610;10.236;2023-07-24T14:33:29;4.13;;;2.85;;
49071;SDS011;52656;52.610;10.236;2023-07-24T14:35:55;3.92;;;2.53;;
49071;SDS011;52656;52.610;10.236;2023-07-24T14:38:20;3.92;;;2.75;;